Time;durP1;ratioP1;P1;durP2;ratioP2;P2;SDS_P1;SDS_P2;PMS_P1;PMS_P2;Temp;Humidity;BMP_temperature;BMP_pressure;BME280_temperature;BME280_humidity;BME280_pressure;Samples;Min_cycle;Max_cycle;Signal;HPM_P1;HPM_P2
2022/07/19 00:04:08;;;;;;;1.67;0.73;;;19.80;54.50;;;18.57;43.99;100692.41;10382482;28;97755;-85
2022/07/19 00:09:11;;;;;;;4.90;0.80;;;19.70;54.70;;;18.51;44.54;100695.94;10412241;28;97252;-84
2022/07/19 00:14:15;;;;;;;3.28;0.60;;;19.80;54.80;;;18.52;44.75;100692.22;10412593;27;97460;-85
2022/07/19 00:19:18;;;;;;;3.90;0.70;;;19.80;54.90;;;18.53;44.75;100698.41;10386447;28;98057;-85
2022/07/19 00:24:21;;;;;;;1.50;0.60;;;19.70;55.00;;;18.46;44.70;100695.72;10418263;28;96591;-85
2022/07/19 00:29:24;;;;;;;4.07;0.63;;;19.70;55.00;;;18.37;44.59;100700.50;10402724;28;97590;-87
2022/07/19 00:34:28;;;;;;;5.03;0.60;;;19.60;55.20;;;18.26;44.63;100703.81;10413660;28;96778;-87
2022/07/19 00:39:30;;;;;;;1.05;0.63;;;19.50;55.20;;;18.10;44.48;100706.88;10418363;27;96666;-86
2022/07/19 00:44:33;;;;;;;2.45;0.60;;;19.30;55.70;;;17.95;44.53;100690.94;10419555;28;97299;-87
2022/07/19 00:49:36;;;;;;;1.50;0.40;;;19.10;55.30;;;17.95;44.42;100708.94;10401316;28;99009;-85
2022/07/19 00:54:40;;;;;;;2.65;0.47;;;19.10;55.30;;;17.92;44.49;100700.22;10400526;28;96938;-85
2022/07/19 00:59:45;;;;;;;0.95;0.60;;;19.10;55.30;;;17.87;45.05;100700.03;10383600;28;97912;-85
2022/07/19 01:04:48;;;;;;;2.90;0.80;;;19.10;55.50;;;17.78;45.47;100703.09;10410800;28;97608;-85
2022/07/19 01:09:58;;;;;;;2.08;1.00;;;18.90;55.90;;;17.66;46.07;100705.53;10399410;28;98168;-85
2022/07/19 01:15:11;;;;;;;1.45;0.68;;;18.80;56.30;;;17.58;46.43;100697.66;10399629;28;97094;-85
2022/07/19 01:20:14;;;;;;;2.15;0.60;;;18.70;56.70;;;17.50;46.88;100703.19;10401237;28;96599;-84
2022/07/19 01:25:18;;;;;;;3.00;1.10;;;18.70;57.00;;;17.41;47.37;100697.16;10415993;28;96644;-83
2022/07/19 01:30:24;;;;;;;3.67;0.60;;;18.60;57.40;;;17.25;47.47;100687.56;10414503;27;96718;-84
2022/07/19 01:35:29;;;;;;;1.67;0.63;;;18.50;57.60;;;17.19;47.23;100687.53;10441610;27;97791;-84
2022/07/19 01:40:33;;;;;;;1.02;0.68;;;18.40;57.60;;;17.08;47.38;100686.25;10444957;27;96629;-84
2022/07/19 01:45:36;;;;;;;1.77;0.60;;;18.30;57.70;;;17.04;47.33;100690.38;10418357;27;97837;-87
2022/07/19 01:50:39;;;;;;;3.70;0.80;;;18.20;57.60;;;16.98;47.57;100691.16;10444016;27;98365;-87
2022/07/19 01:55:42;;;;;;;3.17;0.50;;;18.20;57.80;;;16.90;47.48;100686.75;10425486;27;98219;-86
2022/07/19 02:00:45;;;;;;;1.42;0.50;;;18.10;57.80;;;16.87;47.49;100689.03;10440003;27;96588;-86
2022/07/19 02:05:48;;;;;;;0.88;0.50;;;18.10;57.90;;;16.90;47.91;100694.81;10443289;27;96525;-85
2022/07/19 02:10:52;;;;;;;0.95;0.50;;;18.10;58.00;;;16.84;48.06;100698.28;10440355;27;96640;-86
2022/07/19 02:15:55;;;;;;;1.05;0.60;;;18.10;58.20;;;16.74;48.40;100705.88;10410311;27;97081;-86
2022/07/19 02:20:58;;;;;;;3.97;0.60;;;18.00;58.50;;;16.62;48.82;100700.19;10442453;27;96393;-86
2022/07/19 02:26:01;;;;;;;2.53;1.08;;;17.90;59.20;;;16.59;48.64;100703.25;10423557;27;96884;-87
2022/07/19 02:31:04;;;;;;;1.15;0.50;;;17.80;58.70;;;16.59;48.47;100711.28;10433624;27;96803;-86
2022/07/19 02:36:07;;;;;;;1.75;0.50;;;17.80;58.60;;;16.62;48.67;100710.09;10460123;27;96626;-87
2022/07/19 02:41:11;;;;;;;2.25;0.80;;;17.80;58.60;;;16.64;48.57;100711.53;10440237;27;96629;-87
2022/07/19 02:46:14;;;;;;;1.73;0.95;;;17.80;58.60;;;16.66;48.54;100716.72;10421206;27;97022;-84
2022/07/19 02:51:17;;;;;;;3.47;0.77;;;17.90;58.70;;;16.63;49.01;100715.25;10439964;27;98444;-84
2022/07/19 02:56:20;;;;;;;3.65;0.70;;;17.80;58.80;;;16.56;48.94;100717.88;10438494;27;97669;-85
2022/07/19 03:01:22;;;;;;;1.30;0.50;;;17.80;59.00;;;16.52;48.91;100716.59;10453944;27;96887;-85
2022/07/19 03:06:26;;;;;;;4.28;0.70;;;17.70;59.00;;;16.54;49.44;100716.41;10457235;27;97103;-85
2022/07/19 03:11:29;;;;;;;1.33;0.75;;;17.80;59.30;;;16.55;49.76;100724.28;10440534;27;96875;-85
2022/07/19 03:16:32;;;;;;;7.15;1.17;;;17.80;59.60;;;16.51;49.36;100727.53;10454601;27;96719;-84
2022/07/19 03:21:35;;;;;;;2.40;0.82;;;17.80;59.60;;;16.49;49.76;100732.25;10439508;27;96573;-85
2022/07/19 03:26:38;;;;;;;1.50;0.80;;;17.70;59.80;;;16.39;50.26;100731.78;10422707;27;98667;-84
2022/07/19 03:31:41;;;;;;;4.38;1.15;;;17.60;60.00;;;16.34;50.53;100726.97;10414905;27;96834;-86
2022/07/19 03:36:44;;;;;;;3.63;0.90;;;17.60;60.40;;;16.29;51.22;100740.97;10439043;27;96518;-86
2022/07/19 03:41:47;;;;;;;3.50;0.70;;;17.50;60.90;;;16.29;51.27;100748.19;10439392;27;96568;-86
2022/07/19 03:46:50;;;;;;;1.75;0.70;;;17.50;61.10;;;16.28;51.58;100746.53;10432975;27;96605;-85
2022/07/19 03:51:54;;;;;;;1.27;0.63;;;17.50;61.40;;;16.30;51.90;100749.81;10439022;27;97085;-84
2022/07/19 03:56:57;;;;;;;3.03;0.80;;;17.50;61.60;;;16.37;52.22;100747.22;10421430;27;96706;-83
2022/07/19 04:02:41;;;;;;;3.35;0.80;;;17.50;61.90;;;16.45;52.37;100752.47;10434102;27;96719;-83
2022/07/19 04:07:45;;;;;;;2.38;0.80;;;17.60;62.20;;;16.49;52.63;100754.56;10429816;27;96457;-84
2022/07/19 04:12:48;;;;;;;3.97;1.10;;;17.70;62.40;;;16.60;52.62;100754.03;10455831;27;97303;-84
2022/07/19 04:17:51;;;;;;;2.00;0.82;;;17.80;62.30;;;16.75;52.44;100767.41;10439468;27;98515;-86
2022/07/19 04:22:56;;;;;;;2.10;1.05;;;17.90;62.30;;;16.87;52.46;100767.69;10404073;27;96672;-85
2022/07/19 04:27:59;;;;;;;1.52;0.80;;;18.00;62.40;;;16.96;51.76;100765.69;10434115;27;98492;-84
2022/07/19 04:33:01;;;;;;;2.38;0.80;;;18.10;62.00;;;17.01;51.62;100771.31;10449771;27;98604;-85
2022/07/19 04:38:04;;;;;;;0.82;0.47;;;18.10;61.90;;;17.10;51.68;100768.28;10418896;27;96520;-85
2022/07/19 04:43:07;;;;;;;3.58;0.80;;;18.20;61.90;;;17.27;51.52;100758.06;10420236;27;97024;-86
2022/07/19 04:48:11;;;;;;;1.92;0.70;;;18.30;61.80;;;17.43;51.44;100758.75;10451011;27;96719;-84
2022/07/19 04:53:14;;;;;;;1.65;0.60;;;18.50;61.70;;;17.57;51.26;100760.47;10415393;27;97035;-84
2022/07/19 04:58:17;;;;;;;3.92;0.90;;;18.60;61.50;;;17.70;50.84;100765.91;10445518;27;96604;-85
2022/07/19 05:03:20;;;;;;;3.70;1.23;;;18.80;61.50;;;17.80;51.10;100769.06;10449176;27;97043;-88
2022/07/19 05:08:23;;;;;;;3.80;0.90;;;18.90;61.50;;;17.94;50.63;100764.59;10409552;27;97405;-85
2022/07/19 05:13:26;;;;;;;2.00;0.90;;;19.00;61.50;;;18.10;50.44;100766.88;10442158;27;96949;-83
2022/07/19 05:18:29;;;;;;;2.72;0.98;;;19.20;61.30;;;18.27;50.26;100763.81;10416467;27;97035;-82
2022/07/19 05:23:32;;;;;;;1.70;0.60;;;19.30;61.00;;;18.48;50.45;100762.81;10418443;27;96704;-83
2022/07/19 05:28:35;;;;;;;3.65;1.10;;;19.60;60.90;;;18.71;49.87;100765.94;10442461;27;96759;-83
2022/07/19 05:33:39;;;;;;;5.00;1.17;;;19.80;60.50;;;18.93;49.36;100767.38;10439718;27;97297;-82
2022/07/19 05:38:42;;;;;;;2.45;1.00;;;20.00;60.20;;;19.13;48.93;100762.00;10409040;27;97471;-82
2022/07/19 05:43:45;;;;;;;2.35;0.82;;;20.20;59.90;;;19.39;48.58;100761.09;10430826;27;97024;-84
2022/07/19 05:48:48;;;;;;;8.27;1.23;;;20.40;59.50;;;19.62;48.24;100757.94;10440885;27;96866;-84
2022/07/19 05:53:52;;;;;;;2.28;0.90;;;20.70;59.20;;;19.86;47.59;100753.69;10433404;27;96651;-84
2022/07/19 05:58:55;;;;;;;11.65;1.08;;;20.90;58.70;;;20.11;47.13;100747.53;10436344;27;98286;-84
2022/07/19 06:04:00;;;;;;;4.72;1.20;;;21.20;58.40;;;20.40;47.16;100752.31;10424791;27;97321;-84
2022/07/19 06:09:04;;;;;;;6.35;1.35;;;21.50;58.40;;;20.72;47.35;100757.69;10423999;27;98584;-84
2022/07/19 06:14:08;;;;;;;6.10;1.05;;;21.80;58.20;;;20.97;45.22;100755.78;10421476;27;98347;-82
2022/07/19 06:19:11;;;;;;;3.35;1.15;;;22.00;57.00;;;21.23;45.11;100756.56;10423862;27;96770;-85
2022/07/19 06:24:14;;;;;;;4.38;1.02;;;22.30;56.80;;;21.50;44.26;100755.25;10438790;27;97713;-84
2022/07/19 06:29:17;;;;;;;3.80;1.00;;;22.60;56.20;;;21.80;44.19;100754.47;10440671;27;96393;-83
2022/07/19 06:34:20;;;;;;;4.55;0.88;;;22.80;55.90;;;22.06;43.03;100751.38;10439909;27;96639;-83
2022/07/19 06:39:23;;;;;;;4.32;1.60;;;23.10;54.90;;;22.32;41.74;100741.28;10435533;27;97304;-82
2022/07/19 06:44:26;;;;;;;1.77;1.00;;;23.40;54.00;;;22.58;40.77;100732.72;10440542;27;96555;-84
2022/07/19 06:49:29;;;;;;;1.70;0.80;;;23.70;53.40;;;22.80;39.71;100729.44;10422013;27;98667;-84
2022/07/19 06:54:32;;;;;;;9.05;1.10;;;23.90;52.30;;;23.03;39.15;100737.59;10423698;27;96661;-84
2022/07/19 06:59:36;;;;;;;2.83;0.90;;;24.10;51.70;;;23.30;38.33;100731.66;10419246;27;98411;-82
2022/07/19 07:04:39;;;;;;;3.53;0.77;;;24.40;51.00;;;23.52;37.57;100731.84;10438731;27;97557;-83
2022/07/19 07:09:47;;;;;;;4.93;1.07;;;24.60;50.40;;;23.71;37.03;100723.31;10451990;27;96902;-81
2022/07/19 07:14:50;;;;;;;4.30;0.80;;;24.80;50.10;;;24.03;36.33;100717.38;10420613;27;97016;-82
2022/07/19 07:19:53;;;;;;;5.22;1.00;;;25.10;49.70;;;24.30;34.52;100717.59;10435411;27;97705;-81
2022/07/19 07:24:56;;;;;;;2.42;0.80;;;25.30;47.80;;;24.58;34.37;100722.13;10454492;27;96654;-85
2022/07/19 07:30:00;;;;;;;4.18;1.02;;;25.60;47.50;;;24.80;33.97;100706.72;10438755;27;96620;-83
2022/07/19 07:35:04;;;;;;;4.97;0.80;;;25.90;47.20;;;25.09;33.43;100703.91;10404206;28;97772;-83
2022/07/19 07:40:08;;;;;;;2.63;0.90;;;26.20;46.90;;;25.35;32.83;100697.69;10413174;28;96620;-83
2022/07/19 07:45:11;;;;;;;3.28;1.40;;;26.40;46.50;;;25.60;32.28;100694.44;10420416;27;96682;-83
2022/07/19 07:50:14;;;;;;;3.05;1.10;;;26.70;45.70;;;25.80;31.53;100696.63;10415205;27;96546;-83
2022/07/19 07:55:18;;;;;;;3.45;0.90;;;26.80;45.40;;;26.01;31.69;100700.34;10395884;28;97577;-83
2022/07/19 08:00:32;;;;;;;2.58;0.63;;;27.10;45.30;;;26.26;30.93;100690.75;10410334;28;98532;-83
2022/07/19 08:05:35;;;;;;;2.05;0.90;;;27.30;44.80;;;26.55;30.28;100696.75;10413800;27;96871;-84
2022/07/19 08:10:38;;;;;;;4.63;1.20;;;27.60;44.20;;;26.82;29.77;100686.56;10400033;28;96500;-84
2022/07/19 08:15:41;;;;;;;4.30;1.08;;;27.90;43.80;;;26.98;29.13;100690.19;10410678;28;97294;-84
2022/07/19 08:20:44;;;;;;;5.28;0.80;;;28.00;43.10;;;27.18;28.87;100686.78;10410398;28;96757;-84
2022/07/19 08:25:47;;;;;;;2.80;0.65;;;28.20;42.70;;;27.39;28.81;100682.22;10410689;28;96565;-84
2022/07/19 08:30:50;;;;;;;2.88;1.00;;;28.50;42.40;;;27.57;28.45;100680.91;10390466;27;96763;-84
2022/07/19 08:36:12;;;;;;;2.45;0.95;;;28.60;42.60;;;27.73;28.22;100677.97;10440840;27;96650;-83
2022/07/19 08:41:16;;;;;;;2.90;0.85;;;28.80;42.40;;;27.92;27.83;100681.00;10443203;27;98865;-84
2022/07/19 08:46:22;;;;;;;4.22;0.80;;;29.00;42.40;;;28.12;27.69;100673.91;10424794;27;97038;-84
2022/07/19 08:51:27;;;;;;;3.67;0.85;;;29.20;41.80;;;28.35;27.84;100664.38;10442958;27;96544;-83
2022/07/19 09:01:51;;;;;;;2.38;0.80;;;29.60;41.30;;;28.78;26.97;100652.81;10445783;27;96882;-84
2022/07/19 09:06:57;;;;;;;3.38;0.63;;;29.80;41.10;;;29.00;26.41;100651.69;10454289;27;97737;-83
2022/07/19 09:12:02;;;;;;;1.67;0.57;;;30.00;40.80;;;29.18;26.27;100647.50;10437726;27;96606;-84
2022/07/19 09:17:09;;;;;;;1.52;0.57;;;30.30;40.80;;;29.42;25.81;100651.22;10425186;27;96634;-87
2022/07/19 09:22:16;;;;;;;3.33;1.02;;;30.50;40.60;;;29.55;25.58;100642.41;10423077;27;96678;-85
2022/07/19 09:27:25;;;;;;;1.80;0.80;;;30.60;40.20;;;29.62;25.36;100635.78;10426325;27;96707;-86
2022/07/19 09:32:28;;;;;;;3.78;0.80;;;30.70;39.90;;;29.70;24.87;100632.47;10415341;27;96616;-84
2022/07/19 09:37:34;;;;;;;3.85;0.75;;;30.80;39.80;;;29.82;24.81;100625.53;10440172;27;98433;-84
2022/07/19 09:42:44;;;;;;;1.98;0.70;;;30.90;39.40;;;29.89;24.30;100635.34;10429535;27;96999;-83
2022/07/19 09:47:48;;;;;;;3.90;0.90;;;31.10;39.00;;;29.95;24.12;100620.50;10454603;27;96627;-85
2022/07/19 09:52:52;;;;;;;2.78;0.70;;;31.20;39.00;;;30.19;24.92;100617.84;10440392;27;96759;-85
2022/07/19 09:57:58;;;;;;;2.10;0.88;;;31.30;39.10;;;30.36;24.27;100610.00;10425755;27;96709;-85
2022/07/19 10:03:02;;;;;;;2.53;0.90;;;31.50;39.00;;;30.53;24.34;100615.84;10430822;27;96684;-85
2022/07/19 10:08:05;;;;;;;1.95;0.70;;;31.60;38.90;;;30.68;23.90;100601.19;10439016;27;97723;-85
2022/07/19 10:13:09;;;;;;;2.83;0.85;;;31.80;38.70;;;30.61;23.52;100604.25;10439722;27;97404;-85
2022/07/19 10:18:17;;;;;;;2.22;0.90;;;31.80;38.00;;;30.64;23.40;100603.63;10425836;27;98361;-84
2022/07/19 10:23:28;;;;;;;1.90;0.67;;;31.90;38.10;;;30.78;23.75;100601.06;10429326;27;96577;-84
2022/07/19 10:28:37;;;;;;;1.38;0.65;;;32.00;38.50;;;31.02;23.34;100597.47;10408002;27;96950;-86
2022/07/19 10:34:24;;;;;;;2.00;0.80;;;32.20;38.20;;;31.16;22.99;100584.66;10424120;27;96700;-85
2022/07/19 10:39:29;;;;;;;2.22;0.95;;;32.40;38.10;;;31.32;22.95;100590.78;10433494;27;98576;-82
2022/07/19 10:50:21;;;;;;;4.17;0.83;;;32.60;37.90;;;31.55;22.36;100584.38;10457412;27;96601;-83
2022/07/19 10:55:28;;;;;;;3.85;0.90;;;32.80;37.60;;;31.63;22.60;100585.63;10424191;27;96685;-83
2022/07/19 11:00:41;;;;;;;2.53;1.00;;;32.90;37.30;;;31.87;22.71;100571.81;10453608;27;96795;-83
2022/07/19 11:05:53;;;;;;;1.80;0.75;;;33.00;37.60;;;31.86;22.51;100561.94;10440101;27;96621;-83
2022/07/19 11:11:07;;;;;;;2.92;0.70;;;33.20;37.10;;;32.05;22.59;100565.44;10439899;27;96576;-87
2022/07/19 11:16:10;;;;;;;1.45;0.65;;;33.20;37.40;;;32.27;22.46;100561.19;10430155;27;97034;-84
2022/07/19 11:21:15;;;;;;;1.23;0.65;;;33.40;37.10;;;32.59;22.05;100552.88;10403878;27;96613;-86
2022/07/19 11:26:20;;;;;;;2.38;0.80;;;33.70;37.30;;;32.70;22.15;100537.78;10433064;27;98409;-84
2022/07/19 11:31:25;;;;;;;3.35;0.98;;;33.80;37.30;;;32.66;21.31;100536.75;10454195;27;96607;-83
2022/07/19 11:36:28;;;;;;;4.00;0.80;;;34.00;36.50;;;32.66;21.63;100531.25;10432738;27;96629;-84
2022/07/19 11:41:33;;;;;;;2.45;0.80;;;33.90;36.50;;;32.72;21.27;100512.72;10457582;27;96376;-84
2022/07/19 11:46:40;;;;;;;4.13;0.80;;;34.00;36.40;;;32.81;21.49;100521.03;10437976;27;96589;-86
2022/07/19 11:51:44;;;;;;;3.03;0.98;;;34.20;36.40;;;32.70;21.26;100510.28;10420717;27;97582;-84
2022/07/19 11:56:46;;;;;;;3.00;0.60;;;34.30;36.00;;;32.90;21.50;100503.53;10435498;27;98778;-84
2022/07/19 12:01:57;;;;;;;1.95;0.90;;;34.30;36.40;;;33.25;21.08;100510.16;10438283;27;98282;-84
2022/07/19 12:07:00;;;;;;;3.58;0.77;;;34.50;36.30;;;33.65;20.72;100498.44;10453426;27;96662;-83
2022/07/19 12:12:17;;;;;;;3.35;0.70;;;34.70;36.10;;;33.84;19.82;100498.25;10456828;27;98363;-86
2022/07/19 12:17:21;;;;;;;1.50;0.60;;;34.90;35.90;;;34.08;20.34;100487.69;10425810;27;97372;-83
2022/07/19 12:22:36;;;;;;;2.30;0.60;;;35.10;36.40;;;34.19;19.24;100488.22;10443667;27;96599;-85
2022/07/19 12:27:43;;;;;;;3.38;1.00;;;35.40;35.20;;;33.97;19.66;100478.06;10460335;27;96617;-83
2022/07/19 12:32:47;;;;;;;1.88;0.90;;;35.20;35.10;;;34.12;19.97;100476.81;10461181;27;96992;-85
2022/07/19 12:38:02;;;;;;;4.20;0.90;;;35.40;35.30;;;34.13;19.54;100472.94;10443403;27;96764;-83
2022/07/19 12:43:06;;;;;;;1.75;0.82;;;35.40;35.00;;;34.22;19.65;100474.59;10447002;27;96553;-84
2022/07/19 12:48:11;;;;;;;2.53;0.80;;;35.60;35.10;;;34.39;20.02;100471.06;10443991;27;96542;-84
2022/07/19 12:53:17;;;;;;;4.38;0.85;;;35.70;35.30;;;34.40;19.96;100475.44;10444943;27;96563;-84
2022/07/19 13:03:41;;;;;;;3.33;0.70;;;36.00;35.20;;;34.86;18.91;100463.88;10461926;27;96526;-84
2022/07/19 13:08:44;;;;;;;1.95;0.77;;;36.20;34.70;;;34.58;19.10;100468.88;10425681;27;96804;-84
2022/07/19 13:13:48;;;;;;;2.00;0.70;;;36.00;34.50;;;33.91;19.52;100457.25;10426972;27;96668;-86
2022/07/19 13:18:51;;;;;;;1.08;0.60;;;35.50;34.30;;;33.70;19.73;100446.75;10441552;27;96691;-84
2022/07/19 13:23:54;;;;;;;1.45;0.70;;;35.20;34.70;;;33.63;20.24;100442.84;10394015;27;96705;-87
2022/07/19 13:29:03;;;;;;;2.17;0.65;;;35.00;34.90;;;33.29;20.33;100436.81;10428988;27;96960;-85
2022/07/19 13:34:06;;;;;;;2.90;1.13;;;34.80;35.00;;;33.01;20.58;100446.31;10442167;27;96710;-83
2022/07/19 13:39:11;;;;;;;3.17;0.70;;;34.40;35.40;;;32.82;21.10;100431.88;10457895;27;96675;-83
2022/07/19 13:44:14;;;;;;;3.25;0.70;;;34.10;35.60;;;33.19;20.88;100428.78;10441909;27;96691;-85
2022/07/19 13:49:17;;;;;;;3.85;0.90;;;34.30;35.70;;;33.69;20.12;100423.09;10423441;27;97450;-87
2022/07/19 13:54:20;;;;;;;1.65;0.90;;;34.70;35.80;;;33.97;19.90;100415.47;10426962;27;96974;-84
2022/07/19 13:59:23;;;;;;;2.35;0.70;;;35.10;35.40;;;34.30;19.82;100421.38;10455010;27;96667;-87
2022/07/19 14:04:27;;;;;;;1.45;0.70;;;35.50;35.40;;;34.53;19.66;100411.06;10430325;27;96668;-82
2022/07/19 14:09:30;;;;;;;2.45;0.70;;;35.70;35.20;;;34.80;19.06;100404.44;10432362;27;96669;-83
2022/07/19 14:14:33;;;;;;;2.50;0.88;;;36.10;34.70;;;35.21;18.82;100397.59;10399571;28;97264;-83
2022/07/19 14:19:38;;;;;;;2.83;0.90;;;36.40;34.50;;;35.22;18.44;100392.88;10437638;27;98638;-84
2022/07/19 14:24:41;;;;;;;4.82;1.00;;;36.60;34.20;;;34.85;18.59;100390.47;10421149;27;96720;-84
2022/07/19 14:29:44;;;;;;;3.92;0.82;;;36.30;34.00;;;34.68;18.50;100392.44;10435894;27;97616;-85
2022/07/19 14:34:47;;;;;;;2.90;0.70;;;36.10;34.00;;;34.59;18.63;100393.22;10392957;27;96807;-83
2022/07/19 14:39:51;;;;;;;2.92;0.85;;;36.00;34.00;;;34.65;18.78;100387.53;10403965;28;98524;-86
2022/07/19 14:44:54;;;;;;;1.38;0.77;;;35.90;34.00;;;34.44;18.72;100382.69;10413455;27;96666;-85
2022/07/19 14:49:56;;;;;;;2.20;0.70;;;35.80;33.90;;;34.44;19.13;100384.63;10400710;28;96846;-85
2022/07/19 14:55:00;;;;;;;2.47;0.80;;;35.70;34.20;;;34.27;18.73;100377.91;10416292;28;96538;-84
2022/07/19 15:00:11;;;;;;;7.85;1.00;;;35.70;33.90;;;34.28;19.10;100374.00;10415453;28;96437;-85
2022/07/19 15:05:14;;;;;;;2.15;0.90;;;35.60;34.40;;;34.27;18.89;100369.63;10402782;28;97530;-85
2022/07/19 15:10:18;;;;;;;4.47;1.10;;;35.60;34.20;;;34.33;19.50;100373.06;10388679;28;96617;-85
2022/07/19 15:15:21;;;;;;;4.05;1.10;;;35.60;34.60;;;34.63;19.28;100365.00;10367437;28;97106;-84
2022/07/19 15:20:24;;;;;;;2.05;0.70;;;35.70;34.60;;;35.05;19.34;100360.59;10406067;28;96659;-84
2022/07/19 15:25:27;;;;;;;2.28;0.88;;;36.00;34.70;;;35.35;18.97;100354.00;10394784;28;97000;-83
2022/07/19 15:30:30;;;;;;;3.38;0.90;;;36.30;34.60;;;35.61;18.22;100345.63;10414166;27;98409;-84
2022/07/19 15:35:33;;;;;;;4.65;0.80;;;36.60;34.30;;;35.56;18.40;100345.00;10437511;27;96913;-83
2022/07/19 15:40:36;;;;;;;1.98;0.77;;;36.60;34.00;;;35.67;18.26;100341.53;10421160;27;96669;-83
2022/07/19 15:45:39;;;;;;;3.05;0.90;;;36.70;34.00;;;35.91;17.64;100340.09;10433724;27;96572;-84
2022/07/19 15:50:42;;;;;;;2.60;0.88;;;36.70;33.80;;;36.04;18.19;100332.72;10445604;27;96538;-85
2022/07/19 15:55:45;;;;;;;1.85;0.70;;;36.90;33.90;;;35.96;17.62;100330.84;10419369;27;97222;-84
2022/07/19 16:00:48;;;;;;;3.28;0.80;;;36.90;33.60;;;36.02;17.60;100321.19;10452801;27;96616;-84
2022/07/19 16:05:52;;;;;;;2.42;1.00;;;36.90;33.60;;;36.07;17.19;100335.66;10420733;27;98987;-87
2022/07/19 16:10:55;;;;;;;3.30;0.70;;;36.90;33.40;;;36.04;17.24;100333.53;10438687;27;96984;-86
2022/07/19 16:15:59;;;;;;;1.33;0.63;;;36.70;33.10;;;35.58;17.18;100328.91;10437004;27;96889;-82
2022/07/19 16:21:02;;;;;;;3.80;0.98;;;36.60;33.20;;;35.39;18.05;100319.06;10435653;27;97432;-82
2022/07/19 16:26:06;;;;;;;1.65;0.90;;;36.50;33.70;;;35.13;18.32;100326.59;10414690;27;96773;-82
2022/07/19 16:31:09;;;;;;;4.15;1.00;;;36.40;33.60;;;34.82;18.58;100330.38;10431901;27;98807;-82
2022/07/19 16:36:12;;;;;;;1.33;0.70;;;36.20;33.90;;;34.90;19.05;100330.69;10427518;27;97002;-83
2022/07/19 16:41:15;;;;;;;1.40;0.60;;;36.20;34.30;;;34.91;19.14;100324.03;10437826;27;96538;-83
2022/07/19 16:46:18;;;;;;;3.67;0.70;;;36.20;34.30;;;34.68;18.89;100324.25;10418716;27;96697;-83
2022/07/19 16:51:21;;;;;;;1.38;0.57;;;36.10;34.00;;;34.71;18.25;100320.00;10408002;27;98373;-84
2022/07/19 16:56:24;;;;;;;1.35;0.80;;;35.90;33.80;;;34.73;18.77;100323.28;10431645;27;97507;-84
2022/07/19 17:01:26;;;;;;;1.10;0.77;;;35.80;34.10;;;34.65;19.46;100329.59;10439730;27;96756;-83
2022/07/19 17:06:29;;;;;;;1.88;0.68;;;35.70;34.50;;;34.57;18.97;100318.25;10422828;27;96738;-83
2022/07/19 17:11:33;;;;;;;3.15;0.82;;;35.60;34.30;;;34.25;19.12;100316.75;10443685;27;96915;-83
2022/07/19 17:16:39;;;;;;;3.38;0.80;;;35.40;34.50;;;33.91;19.73;100327.69;10451822;27;98726;-83
2022/07/19 17:21:42;;;;;;;4.05;1.02;;;35.20;34.80;;;33.62;20.60;100328.25;10442198;27;96757;-83
2022/07/19 17:26:45;;;;;;;1.65;0.82;;;34.80;35.30;;;33.28;21.31;100337.97;10441233;27;96595;-83
2022/07/19 17:31:48;;;;;;;2.95;1.00;;;34.50;35.90;;;32.86;21.27;100342.03;10456645;27;96705;-83
2022/07/19 17:36:51;;;;;;;4.43;1.05;;;34.00;36.10;;;32.47;21.52;100340.78;10440292;27;96638;-83
2022/07/19 17:41:53;;;;;;;3.95;0.85;;;33.40;36.10;;;32.16;21.75;100341.44;10460452;27;97321;-83
2022/07/19 17:46:57;;;;;;;7.03;0.98;;;33.10;36.50;;;31.89;22.34;100344.22;10455349;27;96647;-82
2022/07/19 17:51:59;;;;;;;5.20;1.10;;;32.80;37.20;;;31.63;22.94;100354.91;10458657;27;96534;-82
2022/07/19 17:57:04;;;;;;;6.43;1.10;;;32.60;38.00;;;31.32;23.25;100354.66;10440255;27;96855;-86
2022/07/19 18:02:06;;;;;;;4.00;0.80;;;32.30;37.80;;;31.02;23.65;100351.31;10439987;27;96809;-82
2022/07/19 18:07:31;;;;;;;8.43;1.33;;;32.00;38.10;;;30.69;23.76;100355.13;10432755;27;97293;-82
2022/07/19 18:12:34;;;;;;;5.45;1.10;;;31.70;38.20;;;30.36;23.98;100355.84;10421986;27;97043;-82
2022/07/19 18:17:37;;;;;;;4.85;1.00;;;31.40;38.20;;;30.05;24.12;100363.66;10408728;27;96705;-83
2022/07/19 18:22:40;;;;;;;3.78;0.93;;;31.10;38.40;;;29.73;24.27;100358.81;10420924;27;96722;-81
2022/07/19 18:27:43;;;;;;;6.68;1.38;;;30.70;38.70;;;29.41;24.87;100373.09;10419176;27;98379;-82
2022/07/19 18:32:47;;;;;;;3.28;0.95;;;30.40;39.10;;;29.15;25.15;100363.47;10435802;27;96653;-82
2022/07/19 18:37:51;;;;;;;4.68;1.10;;;30.10;39.20;;;28.90;25.60;100372.69;10431857;27;96740;-82
2022/07/19 18:42:53;;;;;;;3.53;1.00;;;29.80;39.40;;;28.63;25.89;100375.91;10421396;27;97950;-82
2022/07/19 18:47:56;;;;;;;2.92;0.88;;;29.60;39.70;;;28.43;26.38;100380.41;10437935;27;96710;-82
2022/07/19 18:52:59;;;;;;;1.35;0.90;;;29.30;39.90;;;28.24;26.65;100380.16;10457505;27;96837;-82
2022/07/19 18:58:03;;;;;;;2.85;1.10;;;29.20;40.10;;;28.08;26.75;100384.09;10423005;27;96559;-82
2022/07/19 19:03:07;;;;;;;3.70;0.90;;;29.00;40.20;;;27.88;26.75;100392.34;10448051;27;96815;-83
2022/07/19 19:08:11;;;;;;;2.45;1.00;;;28.80;40.30;;;27.69;27.26;100390.19;10436012;27;96682;-82
2022/07/19 19:13:14;;;;;;;4.20;1.00;;;28.70;40.50;;;27.55;27.74;100404.69;10440181;27;96581;-82
2022/07/19 19:18:16;;;;;;;2.00;1.08;;;28.50;40.80;;;27.38;27.86;100397.59;10435376;27;96782;-83
2022/07/19 19:23:19;;;;;;;3.53;1.05;;;28.30;40.90;;;27.26;27.85;100401.69;10412368;27;97939;-83
2022/07/19 19:28:22;;;;;;;3.15;0.90;;;28.20;41.00;;;27.14;27.81;100408.25;10436652;27;96799;-82
2022/07/19 19:33:25;;;;;;;3.55;0.90;;;28.10;41.10;;;27.03;28.10;100417.47;10411989;27;96718;-85
2022/07/19 19:38:28;;;;;;;2.70;0.75;;;28.00;41.20;;;26.91;28.12;100420.47;10436986;27;96627;-84
2022/07/19 19:43:31;;;;;;;5.43;0.93;;;27.90;41.20;;;26.76;28.31;100420.47;10453226;27;96955;-82
2022/07/19 19:48:35;;;;;;;3.53;0.90;;;27.80;41.40;;;26.63;28.66;100413.63;10420133;27;97981;-82
2022/07/19 19:53:39;;;;;;;2.28;1.05;;;27.60;41.60;;;26.51;29.01;100431.28;10418146;27;99688;-82
2022/07/19 19:58:42;;;;;;;2.55;0.93;;;27.50;41.80;;;26.42;29.07;100433.72;10435105;27;96590;-82
2022/07/19 20:03:45;;;;;;;3.42;1.00;;;27.40;41.90;;;26.32;29.19;100434.44;10423296;27;96684;-83
2022/07/19 20:08:49;;;;;;;3.65;0.93;;;27.40;42.10;;;26.23;30.17;100441.50;10435551;27;96775;-82
2022/07/19 20:13:56;;;;;;;3.22;1.10;;;27.30;42.50;;;26.09;30.52;100449.34;10438833;27;96836;-83
2022/07/19 20:18:59;;;;;;;1.40;0.90;;;27.20;43.00;;;25.97;31.04;100454.19;10417290;27;98381;-82
2022/07/19 20:24:03;;;;;;;3.35;1.20;;;27.10;43.40;;;25.82;31.58;100462.25;10417369;27;96773;-83
2022/07/19 20:29:06;;;;;;;1.45;0.93;;;26.90;43.70;;;25.63;31.77;100469.97;10431071;27;98706;-82
2022/07/19 20:34:11;;;;;;;1.77;1.10;;;26.80;44.10;;;25.39;32.24;100463.25;10398322;28;98999;-91
2022/07/19 20:39:14;;;;;;;4.28;1.02;;;26.50;44.60;;;25.18;32.75;100465.78;10411562;28;97260;-88
2022/07/19 20:44:18;;;;;;;1.83;1.02;;;26.30;45.00;;;24.91;33.27;100460.34;10396138;28;96714;-88
2022/07/19 20:49:23;;;;;;;3.60;1.20;;;26.00;45.50;;;24.70;33.78;100467.44;10376316;28;96652;-88
2022/07/19 20:54:27;;;;;;;2.78;1.00;;;25.80;46.00;;;24.49;34.10;100465.56;10415529;28;98766;-88
2022/07/19 20:59:30;;;;;;;2.70;1.40;;;25.60;46.30;;;24.33;34.53;100464.50;10414553;28;96813;-89
2022/07/19 21:04:33;;;;;;;1.77;1.10;;;25.30;46.50;;;24.23;34.78;100467.09;10400110;28;96694;-90
2022/07/19 21:09:36;;;;;;;4.55;1.10;;;25.20;46.70;;;24.11;34.92;100463.66;10420409;28;96589;-89